Etusivu
METAR-TAF:

METAR-TAF

Lentoasemat :

Denison Municipal Airport

Denison, Iowa, Yhdysvallat

Leveyspiiri: 41-59N, Pituuspiiri: 095-23W, korkeus merenpinnasta: 388 m

Tämänhetkinen sää

Tämä raportti tehtiin 38 minuuttia sitten, kello 19.15 UTC
Tuuli 13 kn koillisesta puuskistuen 20 kn:hen
Lämpötila 29°C
Kosteus 43%
Ilmanpaine 1014 hPa
Näkyvyys: 14.5 km
selkeää

METAR: KDNS 131915Z AUTO 04013G20KT 9SM CLR 29/15 A2994 RMK AO2

Aika: 14:53 (19:53 UTC)


TAF: puuttuu

Säähavainnot ja -ennusteet yli 4000 lentoasemalta (METAR- ja TAF-raportit).

Käytössä olevat sääasemat on merkitty karttaan keltaisilla ja punaisilla pisteillä.

Aseta hiiri pisteen päälle nähdäksesi sääaseman nimen.

Klikkaa sitten nähdäksesi säähavainnot ja -ennusteet.

Kartan vaihtaminen: klikkaa mustalla rastilla varustettuja vihreitä pisteitä, niin voit zoomata sisään; viivalla varustettua vihreää pistettä, niin voit zoomata ulos tai vihreitä nuolia, niin pääset viereisille kartoille.


METAR-TAF: